sensor_id;sensor_type;location;lat;lon;timestamp;P1;durP1;ratioP1;P2;durP2;ratioP2
48375;SDS011;34178;50.904;11.560;2023-03-01T00:01:15;37.85;;;18.58;;
48375;SDS011;34178;50.904;11.560;2023-03-01T00:03:42;39.75;;;18.85;;
48375;SDS011;34178;50.904;11.560;2023-03-01T00:06:08;36.53;;;17.98;;
48375;SDS011;34178;50.904;11.560;2023-03-01T00:08:35;37.20;;;18.50;;
48375;SDS011;34178;50.904;11.560;2023-03-01T00:11:02;34.80;;;17.92;;
48375;SDS011;34178;50.904;11.560;2023-03-01T00:13:38;38.70;;;17.70;;
48375;SDS011;34178;50.904;11.560;2023-03-01T00:16:05;36.05;;;17.40;;
48375;SDS011;34178;50.904;11.560;2023-03-01T00:18:32;33.53;;;17.17;;
48375;SDS011;34178;50.904;11.560;2023-03-01T00:20:58;36.92;;;18.13;;
48375;SDS011;34178;50.904;11.560;2023-03-01T00:23:24;34.78;;;18.48;;
48375;SDS011;34178;50.904;11.560;2023-03-01T00:25:50;35.38;;;18.67;;
48375;SDS011;34178;50.904;11.560;2023-03-01T00:28:16;31.45;;;17.02;;
48375;SDS011;34178;50.904;11.560;2023-03-01T00:30:42;31.88;;;17.48;;
48375;SDS011;34178;50.904;11.560;2023-03-01T00:33:09;36.92;;;18.85;;
48375;SDS011;34178;50.904;11.560;2023-03-01T00:35:35;41.08;;;18.30;;
48375;SDS011;34178;50.904;11.560;2023-03-01T00:38:01;38.38;;;18.65;;
48375;SDS011;34178;50.904;11.560;2023-03-01T00:40:27;37.38;;;18.10;;
48375;SDS011;34178;50.904;11.560;2023-03-01T00:42:53;37.50;;;17.90;;
48375;SDS011;34178;50.904;11.560;2023-03-01T00:45:19;35.28;;;18.30;;
48375;SDS011;34178;50.904;11.560;2023-03-01T00:47:45;36.22;;;17.83;;
48375;SDS011;34178;50.904;11.560;2023-03-01T00:50:12;39.47;;;17.63;;
48375;SDS011;34178;50.904;11.560;2023-03-01T00:52:38;35.42;;;17.33;;
48375;SDS011;34178;50.904;11.560;2023-03-01T00:55:04;33.60;;;16.70;;
48375;SDS011;34178;50.904;11.560;2023-03-01T00:57:30;37.92;;;17.45;;
48375;SDS011;34178;50.904;11.560;2023-03-01T00:59:57;36.30;;;16.45;;
48375;SDS011;34178;50.904;11.560;2023-03-01T01:02:23;35.72;;;18.13;;
48375;SDS011;34178;50.904;11.560;2023-03-01T01:04:48;40.17;;;18.45;;
48375;SDS011;34178;50.904;11.560;2023-03-01T01:07:14;35.60;;;18.23;;
48375;SDS011;34178;50.904;11.560;2023-03-01T01:09:40;42.15;;;20.55;;
48375;SDS011;34178;50.904;11.560;2023-03-01T01:12:06;37.17;;;18.50;;
48375;SDS011;34178;50.904;11.560;2023-03-01T01:14:32;38.70;;;19.05;;
48375;SDS011;34178;50.904;11.560;2023-03-01T01:16:58;31.20;;;17.10;;
48375;SDS011;34178;50.904;11.560;2023-03-01T01:19:24;37.33;;;18.42;;
48375;SDS011;34178;50.904;11.560;2023-03-01T01:21:50;38.45;;;17.73;;
48375;SDS011;34178;50.904;11.560;2023-03-01T01:24:16;39.00;;;17.80;;
48375;SDS011;34178;50.904;11.560;2023-03-01T01:26:42;31.95;;;17.10;;
48375;SDS011;34178;50.904;11.560;2023-03-01T01:29:09;36.08;;;18.90;;
48375;SDS011;34178;50.904;11.560;2023-03-01T01:31:35;39.60;;;18.52;;
48375;SDS011;34178;50.904;11.560;2023-03-01T01:34:04;38.80;;;18.85;;
48375;SDS011;34178;50.904;11.560;2023-03-01T01:36:31;38.95;;;18.65;;
48375;SDS011;34178;50.904;11.560;2023-03-01T01:38:57;39.58;;;18.60;;
48375;SDS011;34178;50.904;11.560;2023-03-01T01:41:24;37.83;;;17.42;;
48375;SDS011;34178;50.904;11.560;2023-03-01T01:46:42;40.13;;;19.50;;
48375;SDS011;34178;50.904;11.560;2023-03-01T01:49:22;41.17;;;18.98;;
48375;SDS011;34178;50.904;11.560;2023-03-01T01:51:49;40.35;;;18.92;;
48375;SDS011;34178;50.904;11.560;2023-03-01T01:54:25;37.15;;;17.02;;
48375;SDS011;34178;50.904;11.560;2023-03-01T01:56:57;44.03;;;19.90;;
48375;SDS011;34178;50.904;11.560;2023-03-01T01:59:27;39.83;;;19.33;;
48375;SDS011;34178;50.904;11.560;2023-03-01T02:01:55;36.22;;;18.48;;
48375;SDS011;34178;50.904;11.560;2023-03-01T02:04:24;36.80;;;18.57;;
48375;SDS011;34178;50.904;11.560;2023-03-01T02:07:23;36.35;;;18.40;;
48375;SDS011;34178;50.904;11.560;2023-03-01T02:09:45;34.78;;;17.92;;
48375;SDS011;34178;50.904;11.560;2023-03-01T02:12:16;37.90;;;17.65;;
48375;SDS011;34178;50.904;11.560;2023-03-01T02:14:44;34.08;;;18.25;;
48375;SDS011;34178;50.904;11.560;2023-03-01T02:17:10;41.30;;;19.13;;
48375;SDS011;34178;50.904;11.560;2023-03-01T02:22:12;41.03;;;18.55;;
48375;SDS011;34178;50.904;11.560;2023-03-01T02:30:34;43.63;;;19.33;;
48375;SDS011;34178;50.904;11.560;2023-03-01T02:33:00;37.95;;;18.38;;
48375;SDS011;34178;50.904;11.560;2023-03-01T02:35:32;42.58;;;19.27;;
48375;SDS011;34178;50.904;11.560;2023-03-01T02:38:01;35.83;;;18.70;;
48375;SDS011;34178;50.904;11.560;2023-03-01T02:40:29;44.42;;;18.65;;
48375;SDS011;34178;50.904;11.560;2023-03-01T02:42:56;42.97;;;19.42;;
48375;SDS011;34178;50.904;11.560;2023-03-01T02:45:24;42.13;;;19.35;;
48375;SDS011;34178;50.904;11.560;2023-03-01T02:47:50;38.33;;;18.60;;
48375;SDS011;34178;50.904;11.560;2023-03-01T02:50:38;38.80;;;19.05;;
48375;SDS011;34178;50.904;11.560;2023-03-01T02:55:52;40.60;;;19.30;;
48375;SDS011;34178;50.904;11.560;2023-03-01T02:58:18;41.05;;;19.63;;
48375;SDS011;34178;50.904;11.560;2023-03-01T03:00:44;44.10;;;20.20;;
48375;SDS011;34178;50.904;11.560;2023-03-01T03:03:15;41.50;;;19.83;;
48375;SDS011;34178;50.904;11.560;2023-03-01T03:05:44;39.13;;;18.45;;
48375;SDS011;34178;50.904;11.560;2023-03-01T03:08:10;40.10;;;19.60;;
48375;SDS011;34178;50.904;11.560;2023-03-01T03:10:38;40.92;;;19.67;;
48375;SDS011;34178;50.904;11.560;2023-03-01T03:13:09;41.72;;;18.60;;
48375;SDS011;34178;50.904;11.560;2023-03-01T03:15:38;42.85;;;19.27;;
48375;SDS011;34178;50.904;11.560;2023-03-01T03:18:06;41.92;;;19.20;;
48375;SDS011;34178;50.904;11.560;2023-03-01T03:20:36;44.67;;;19.40;;
48375;SDS011;34178;50.904;11.560;2023-03-01T03:23:02;38.45;;;19.63;;
48375;SDS011;34178;50.904;11.560;2023-03-01T03:25:29;40.92;;;19.48;;
48375;SDS011;34178;50.904;11.560;2023-03-01T03:27:55;37.42;;;17.80;;
48375;SDS011;34178;50.904;11.560;2023-03-01T03:30:22;43.75;;;18.48;;
48375;SDS011;34178;50.904;11.560;2023-03-01T03:32:50;41.50;;;20.52;;
48375;SDS011;34178;50.904;11.560;2023-03-01T03:35:20;48.25;;;20.17;;
48375;SDS011;34178;50.904;11.560;2023-03-01T03:37:50;44.30;;;20.95;;
48375;SDS011;34178;50.904;11.560;2023-03-01T03:40:27;45.35;;;19.15;;
48375;SDS011;34178;50.904;11.560;2023-03-01T03:42:54;38.58;;;18.67;;
48375;SDS011;34178;50.904;11.560;2023-03-01T03:45:20;41.75;;;19.65;;
48375;SDS011;34178;50.904;11.560;2023-03-01T03:47:46;48.63;;;20.20;;
48375;SDS011;34178;50.904;11.560;2023-03-01T03:50:13;40.17;;;19.52;;
48375;SDS011;34178;50.904;11.560;2023-03-01T03:52:40;39.85;;;19.77;;
48375;SDS011;34178;50.904;11.560;2023-03-01T03:55:06;37.20;;;19.05;;
48375;SDS011;34178;50.904;11.560;2023-03-01T03:57:39;40.25;;;20.50;;
48375;SDS011;34178;50.904;11.560;2023-03-01T04:00:06;46.97;;;20.55;;
48375;SDS011;34178;50.904;11.560;2023-03-01T04:02:40;45.55;;;20.63;;
48375;SDS011;34178;50.904;11.560;2023-03-01T04:05:08;45.17;;;19.08;;
48375;SDS011;34178;50.904;11.560;2023-03-01T04:07:35;49.33;;;21.45;;
48375;SDS011;34178;50.904;11.560;2023-03-01T04:10:05;48.13;;;22.08;;
48375;SDS011;34178;50.904;11.560;2023-03-01T04:12:33;48.67;;;22.27;;
48375;SDS011;34178;50.904;11.560;2023-03-01T04:15:00;71.88;;;27.75;;
48375;SDS011;34178;50.904;11.560;2023-03-01T04:17:41;49.45;;;21.13;;
48375;SDS011;34178;50.904;11.560;2023-03-01T04:20:11;45.20;;;21.33;;
48375;SDS011;34178;50.904;11.560;2023-03-01T04:22:42;49.28;;;21.88;;
48375;SDS011;34178;50.904;11.560;2023-03-01T04:25:12;47.42;;;20.92;;
48375;SDS011;34178;50.904;11.560;2023-03-01T04:27:39;49.00;;;22.08;;
48375;SDS011;34178;50.904;11.560;2023-03-01T04:30:05;54.05;;;24.67;;
48375;SDS011;34178;50.904;11.560;2023-03-01T04:32:32;46.47;;;21.67;;
48375;SDS011;34178;50.904;11.560;2023-03-01T04:34:58;52.13;;;23.60;;
48375;SDS011;34178;50.904;11.560;2023-03-01T04:37:24;44.83;;;21.48;;
48375;SDS011;34178;50.904;11.560;2023-03-01T04:39:50;51.88;;;21.88;;
48375;SDS011;34178;50.904;11.560;2023-03-01T04:42:16;51.05;;;23.95;;
48375;SDS011;34178;50.904;11.560;2023-03-01T04:44:43;55.45;;;23.58;;
48375;SDS011;34178;50.904;11.560;2023-03-01T04:47:09;45.83;;;21.63;;
48375;SDS011;34178;50.904;11.560;2023-03-01T04:49:36;52.58;;;22.65;;
48375;SDS011;34178;50.904;11.560;2023-03-01T04:52:01;47.53;;;22.27;;
48375;SDS011;34178;50.904;11.560;2023-03-01T04:54:28;48.40;;;21.65;;
48375;SDS011;34178;50.904;11.560;2023-03-01T04:56:54;52.05;;;24.30;;
48375;SDS011;34178;50.904;11.560;2023-03-01T04:59:20;52.10;;;23.45;;
48375;SDS011;34178;50.904;11.560;2023-03-01T05:01:49;46.92;;;22.95;;
48375;SDS011;34178;50.904;11.560;2023-03-01T05:04:20;47.28;;;22.08;;
48375;SDS011;34178;50.904;11.560;2023-03-01T05:06:47;48.83;;;23.42;;
48375;SDS011;34178;50.904;11.560;2023-03-01T05:09:12;55.53;;;24.95;;
48375;SDS011;34178;50.904;11.560;2023-03-01T05:11:38;50.28;;;24.02;;
48375;SDS011;34178;50.904;11.560;2023-03-01T05:14:04;50.03;;;23.60;;
48375;SDS011;34178;50.904;11.560;2023-03-01T05:16:31;49.95;;;23.77;;
48375;SDS011;34178;50.904;11.560;2023-03-01T05:18:57;51.90;;;24.38;;
48375;SDS011;34178;50.904;11.560;2023-03-01T05:21:23;49.85;;;24.08;;
48375;SDS011;34178;50.904;11.560;2023-03-01T05:23:49;67.28;;;28.98;;
48375;SDS011;34178;50.904;11.560;2023-03-01T05:26:15;52.97;;;24.50;;
48375;SDS011;34178;50.904;11.560;2023-03-01T05:28:43;54.55;;;24.83;;
48375;SDS011;34178;50.904;11.560;2023-03-01T05:31:08;51.97;;;24.77;;
48375;SDS011;34178;50.904;11.560;2023-03-01T05:33:36;51.10;;;23.58;;
48375;SDS011;34178;50.904;11.560;2023-03-01T05:36:03;51.85;;;24.02;;
48375;SDS011;34178;50.904;11.560;2023-03-01T05:38:29;54.63;;;24.17;;
48375;SDS011;34178;50.904;11.560;2023-03-01T05:40:54;50.65;;;24.52;;
48375;SDS011;34178;50.904;11.560;2023-03-01T05:43:20;48.63;;;24.48;;
48375;SDS011;34178;50.904;11.560;2023-03-01T05:45:46;50.33;;;24.20;;
48375;SDS011;34178;50.904;11.560;2023-03-01T05:48:12;52.13;;;25.05;;
48375;SDS011;34178;50.904;11.560;2023-03-01T05:50:42;53.78;;;24.27;;
48375;SDS011;34178;50.904;11.560;2023-03-01T05:53:13;48.10;;;23.55;;
48375;SDS011;34178;50.904;11.560;2023-03-01T05:55:44;50.10;;;24.80;;
48375;SDS011;34178;50.904;11.560;2023-03-01T05:58:13;49.25;;;24.42;;
48375;SDS011;34178;50.904;11.560;2023-03-01T06:00:40;48.05;;;22.75;;
48375;SDS011;34178;50.904;11.560;2023-03-01T06:03:09;50.65;;;23.35;;
48375;SDS011;34178;50.904;11.560;2023-03-01T06:05:39;51.20;;;24.42;;
48375;SDS011;34178;50.904;11.560;2023-03-01T06:08:05;47.95;;;23.85;;
48375;SDS011;34178;50.904;11.560;2023-03-01T06:10:31;53.72;;;24.33;;
48375;SDS011;34178;50.904;11.560;2023-03-01T06:12:57;50.05;;;24.33;;
48375;SDS011;34178;50.904;11.560;2023-03-01T06:15:23;53.58;;;24.30;;
48375;SDS011;34178;50.904;11.560;2023-03-01T06:17:49;52.15;;;25.20;;
48375;SDS011;34178;50.904;11.560;2023-03-01T06:20:19;91.75;;;47.38;;
48375;SDS011;34178;50.904;11.560;2023-03-01T06:22:47;67.13;;;36.72;;
48375;SDS011;34178;50.904;11.560;2023-03-01T06:25:15;79.97;;;37.58;;
48375;SDS011;34178;50.904;11.560;2023-03-01T06:27:42;56.35;;;29.30;;
48375;SDS011;34178;50.904;11.560;2023-03-01T06:30:09;56.40;;;28.13;;
48375;SDS011;34178;50.904;11.560;2023-03-01T06:32:37;56.90;;;27.35;;
48375;SDS011;34178;50.904;11.560;2023-03-01T06:35:07;101.90;;;54.05;;
48375;SDS011;34178;50.904;11.560;2023-03-01T06:37:33;71.13;;;39.38;;
48375;SDS011;34178;50.904;11.560;2023-03-01T06:40:00;62.78;;;30.90;;
48375;SDS011;34178;50.904;11.560;2023-03-01T06:42:31;53.08;;;26.92;;
48375;SDS011;34178;50.904;11.560;2023-03-01T06:44:57;87.07;;;43.65;;
48375;SDS011;34178;50.904;11.560;2023-03-01T06:47:23;69.22;;;35.45;;
48375;SDS011;34178;50.904;11.560;2023-03-01T06:49:48;55.28;;;28.95;;
48375;SDS011;34178;50.904;11.560;2023-03-01T06:52:14;76.15;;;37.60;;
48375;SDS011;34178;50.904;11.560;2023-03-01T06:54:40;55.33;;;27.35;;
48375;SDS011;34178;50.904;11.560;2023-03-01T06:57:05;61.30;;;31.15;;
48375;SDS011;34178;50.904;11.560;2023-03-01T06:59:31;66.97;;;35.22;;
48375;SDS011;34178;50.904;11.560;2023-03-01T07:01:56;51.78;;;27.75;;
48375;SDS011;34178;50.904;11.560;2023-03-01T07:04:22;57.53;;;28.83;;
48375;SDS011;34178;50.904;11.560;2023-03-01T07:06:48;87.50;;;36.95;;
48375;SDS011;34178;50.904;11.560;2023-03-01T07:09:20;52.33;;;26.95;;
48375;SDS011;34178;50.904;11.560;2023-03-01T07:11:49;68.70;;;33.87;;
48375;SDS011;34178;50.904;11.560;2023-03-01T07:14:15;72.10;;;34.90;;
48375;SDS011;34178;50.904;11.560;2023-03-01T07:16:41;65.30;;;35.00;;
48375;SDS011;34178;50.904;11.560;2023-03-01T07:19:07;58.13;;;29.13;;
48375;SDS011;34178;50.904;11.560;2023-03-01T07:21:32;61.78;;;31.45;;
48375;SDS011;34178;50.904;11.560;2023-03-01T07:23:58;57.97;;;30.23;;
48375;SDS011;34178;50.904;11.560;2023-03-01T07:26:24;62.78;;;31.50;;
48375;SDS011;34178;50.904;11.560;2023-03-01T07:28:49;61.72;;;32.03;;
48375;SDS011;34178;50.904;11.560;2023-03-01T07:31:15;59.65;;;30.25;;
48375;SDS011;34178;50.904;11.560;2023-03-01T07:33:41;50.65;;;25.90;;
48375;SDS011;34178;50.904;11.560;2023-03-01T07:36:06;59.38;;;34.38;;
48375;SDS011;34178;50.904;11.560;2023-03-01T07:38:32;66.32;;;40.25;;
48375;SDS011;34178;50.904;11.560;2023-03-01T07:40:59;56.65;;;30.27;;
48375;SDS011;34178;50.904;11.560;2023-03-01T07:43:27;56.30;;;29.90;;
48375;SDS011;34178;50.904;11.560;2023-03-01T07:45:59;49.53;;;26.67;;
48375;SDS011;34178;50.904;11.560;2023-03-01T07:48:26;56.67;;;26.58;;
48375;SDS011;34178;50.904;11.560;2023-03-01T07:50:52;52.67;;;26.60;;
48375;SDS011;34178;50.904;11.560;2023-03-01T07:53:17;51.50;;;27.17;;
48375;SDS011;34178;50.904;11.560;2023-03-01T07:55:43;47.28;;;26.95;;
48375;SDS011;34178;50.904;11.560;2023-03-01T07:58:09;53.80;;;30.42;;
48375;SDS011;34178;50.904;11.560;2023-03-01T08:00:35;49.78;;;27.50;;
48375;SDS011;34178;50.904;11.560;2023-03-01T08:03:01;52.22;;;27.92;;
48375;SDS011;34178;50.904;11.560;2023-03-01T08:05:27;48.60;;;26.67;;
48375;SDS011;34178;50.904;11.560;2023-03-01T08:07:53;55.20;;;27.83;;
48375;SDS011;34178;50.904;11.560;2023-03-01T08:10:19;52.33;;;28.55;;
48375;SDS011;34178;50.904;11.560;2023-03-01T08:12:45;51.28;;;29.55;;
48375;SDS011;34178;50.904;11.560;2023-03-01T08:15:10;49.58;;;28.67;;
48375;SDS011;34178;50.904;11.560;2023-03-01T08:17:36;51.40;;;28.38;;
48375;SDS011;34178;50.904;11.560;2023-03-01T08:20:02;46.50;;;26.70;;
48375;SDS011;34178;50.904;11.560;2023-03-01T08:22:29;50.00;;;27.00;;
48375;SDS011;34178;50.904;11.560;2023-03-01T08:24:55;52.63;;;27.15;;
48375;SDS011;34178;50.904;11.560;2023-03-01T08:27:21;51.05;;;26.92;;
48375;SDS011;34178;50.904;11.560;2023-03-01T08:29:46;50.28;;;26.33;;
48375;SDS011;34178;50.904;11.560;2023-03-01T08:32:12;50.38;;;26.45;;
48375;SDS011;34178;50.904;11.560;2023-03-01T08:34:38;45.20;;;25.05;;
48375;SDS011;34178;50.904;11.560;2023-03-01T08:37:03;49.28;;;25.30;;
48375;SDS011;34178;50.904;11.560;2023-03-01T08:39:29;46.72;;;25.35;;
48375;SDS011;34178;50.904;11.560;2023-03-01T08:41:55;49.28;;;25.65;;
48375;SDS011;34178;50.904;11.560;2023-03-01T08:44:20;52.30;;;26.88;;
48375;SDS011;34178;50.904;11.560;2023-03-01T08:46:46;44.47;;;24.85;;
48375;SDS011;34178;50.904;11.560;2023-03-01T08:49:15;48.40;;;25.00;;
48375;SDS011;34178;50.904;11.560;2023-03-01T08:51:43;44.30;;;24.30;;
48375;SDS011;34178;50.904;11.560;2023-03-01T08:54:10;43.13;;;23.90;;
48375;SDS011;34178;50.904;11.560;2023-03-01T08:59:05;45.40;;;25.10;;
48375;SDS011;34178;50.904;11.560;2023-03-01T09:01:31;48.50;;;22.58;;
48375;SDS011;34178;50.904;11.560;2023-03-01T09:03:57;45.22;;;24.55;;
48375;SDS011;34178;50.904;11.560;2023-03-01T09:06:23;47.78;;;24.58;;
48375;SDS011;34178;50.904;11.560;2023-03-01T09:08:49;46.17;;;24.40;;
48375;SDS011;34178;50.904;11.560;2023-03-01T09:11:16;44.60;;;23.73;;
48375;SDS011;34178;50.904;11.560;2023-03-01T09:13:44;41.15;;;22.38;;
48375;SDS011;34178;50.904;11.560;2023-03-01T09:16:11;49.25;;;23.75;;
48375;SDS011;34178;50.904;11.560;2023-03-01T09:18:38;41.97;;;23.23;;
48375;SDS011;34178;50.904;11.560;2023-03-01T09:21:05;46.70;;;21.73;;
48375;SDS011;34178;50.904;11.560;2023-03-01T09:23:40;37.60;;;22.00;;
48375;SDS011;34178;50.904;11.560;2023-03-01T09:26:08;40.72;;;21.90;;
48375;SDS011;34178;50.904;11.560;2023-03-01T09:28:36;44.65;;;22.90;;
48375;SDS011;34178;50.904;11.560;2023-03-01T09:31:02;42.78;;;22.90;;
48375;SDS011;34178;50.904;11.560;2023-03-01T09:33:29;41.53;;;23.73;;
48375;SDS011;34178;50.904;11.560;2023-03-01T09:36:00;45.53;;;23.65;;
48375;SDS011;34178;50.904;11.560;2023-03-01T09:38:30;45.45;;;22.13;;
48375;SDS011;34178;50.904;11.560;2023-03-01T09:40:56;39.88;;;21.45;;
48375;SDS011;34178;50.904;11.560;2023-03-01T09:44:23;40.03;;;20.95;;
48375;SDS011;34178;50.904;11.560;2023-03-01T09:46:24;37.85;;;21.00;;
48375;SDS011;34178;50.904;11.560;2023-03-01T09:48:54;39.67;;;20.65;;
48375;SDS011;34178;50.904;11.560;2023-03-01T09:51:25;41.88;;;21.60;;
48375;SDS011;34178;50.904;11.560;2023-03-01T09:53:59;39.20;;;21.35;;
48375;SDS011;34178;50.904;11.560;2023-03-01T09:56:30;38.03;;;19.27;;
48375;SDS011;34178;50.904;11.560;2023-03-01T10:07:23;33.42;;;17.90;;
48375;SDS011;34178;50.904;11.560;2023-03-01T10:10:02;31.25;;;17.38;;
48375;SDS011;34178;50.904;11.560;2023-03-01T10:12:35;34.95;;;18.63;;
48375;SDS011;34178;50.904;11.560;2023-03-01T10:17:53;32.70;;;17.58;;
48375;SDS011;34178;50.904;11.560;2023-03-01T10:23:11;32.95;;;17.00;;
48375;SDS011;34178;50.904;11.560;2023-03-01T10:28:26;33.00;;;16.70;;
48375;SDS011;34178;50.904;11.560;2023-03-01T10:31:01;35.88;;;17.75;;
48375;SDS011;34178;50.904;11.560;2023-03-01T10:33:31;32.40;;;17.38;;
48375;SDS011;34178;50.904;11.560;2023-03-01T10:35:59;34.10;;;17.58;;
48375;SDS011;34178;50.904;11.560;2023-03-01T10:38:24;28.83;;;16.35;;
48375;SDS011;34178;50.904;11.560;2023-03-01T10:41:00;31.40;;;18.05;;
48375;SDS011;34178;50.904;11.560;2023-03-01T10:43:46;30.45;;;16.92;;
48375;SDS011;34178;50.904;11.560;2023-03-01T10:51:40;31.65;;;16.70;;
48375;SDS011;34178;50.904;11.560;2023-03-01T10:54:15;31.38;;;16.63;;
48375;SDS011;34178;50.904;11.560;2023-03-01T10:56:51;32.00;;;17.65;;
48375;SDS011;34178;50.904;11.560;2023-03-01T10:59:42;34.05;;;19.20;;
48375;SDS011;34178;50.904;11.560;2023-03-01T11:02:49;36.88;;;17.95;;
48375;SDS011;34178;50.904;11.560;2023-03-01T11:05:00;31.05;;;17.17;;
48375;SDS011;34178;50.904;11.560;2023-03-01T11:07:42;31.48;;;18.17;;
48375;SDS011;34178;50.904;11.560;2023-03-01T11:12:50;32.70;;;17.58;;
48375;SDS011;34178;50.904;11.560;2023-03-01T11:15:26;36.25;;;18.50;;
48375;SDS011;34178;50.904;11.560;2023-03-01T11:17:54;30.80;;;17.40;;
48375;SDS011;34178;50.904;11.560;2023-03-01T11:20:29;34.13;;;17.23;;
48375;SDS011;34178;50.904;11.560;2023-03-01T11:22:59;31.15;;;18.05;;
48375;SDS011;34178;50.904;11.560;2023-03-01T11:25:35;32.55;;;19.00;;
48375;SDS011;34178;50.904;11.560;2023-03-01T11:28:05;32.28;;;18.33;;
48375;SDS011;34178;50.904;11.560;2023-03-01T11:30:39;30.52;;;17.40;;
48375;SDS011;34178;50.904;11.560;2023-03-01T11:41:14;31.88;;;17.55;;
48375;SDS011;34178;50.904;11.560;2023-03-01T12:10:44;33.10;;;18.45;;
48375;SDS011;34178;50.904;11.560;2023-03-01T12:16:15;29.75;;;17.75;;
48375;SDS011;34178;50.904;11.560;2023-03-01T12:29:02;33.00;;;19.58;;
48375;SDS011;34178;50.904;11.560;2023-03-01T12:47:58;25.10;;;16.60;;
48375;SDS011;34178;50.904;11.560;2023-03-01T12:50:42;28.60;;;17.55;;
48375;SDS011;34178;50.904;11.560;2023-03-01T12:56:02;27.55;;;17.55;;
48375;SDS011;34178;50.904;11.560;2023-03-01T12:58:46;25.13;;;16.90;;
48375;SDS011;34178;50.904;11.560;2023-03-01T13:10:16;26.25;;;17.63;;
48375;SDS011;34178;50.904;11.560;2023-03-01T13:18:11;22.05;;;15.82;;
48375;SDS011;34178;50.904;11.560;2023-03-01T13:20:56;25.42;;;16.67;;
48375;SDS011;34178;50.904;11.560;2023-03-01T13:31:10;25.25;;;14.93;;
48375;SDS011;34178;50.904;11.560;2023-03-01T13:33:53;22.40;;;14.45;;
48375;SDS011;34178;50.904;11.560;2023-03-01T13:41:53;22.42;;;13.70;;
48375;SDS011;34178;50.904;11.560;2023-03-01T13:54:53;22.10;;;14.90;;
48375;SDS011;34178;50.904;11.560;2023-03-01T13:57:22;22.05;;;14.30;;
48375;SDS011;34178;50.904;11.560;2023-03-01T13:59:53;24.08;;;15.40;;
48375;SDS011;34178;50.904;11.560;2023-03-01T14:02:18;22.02;;;13.88;;
48375;SDS011;34178;50.904;11.560;2023-03-01T14:04:46;22.40;;;14.15;;
48375;SDS011;34178;50.904;11.560;2023-03-01T14:07:22;17.77;;;13.05;;
48375;SDS011;34178;50.904;11.560;2023-03-01T14:09:55;22.98;;;14.88;;
48375;SDS011;34178;50.904;11.560;2023-03-01T14:15:37;21.23;;;13.77;;
48375;SDS011;34178;50.904;11.560;2023-03-01T14:18:24;21.65;;;13.70;;
48375;SDS011;34178;50.904;11.560;2023-03-01T14:21:00;21.13;;;13.65;;
48375;SDS011;34178;50.904;11.560;2023-03-01T14:23:32;20.52;;;13.30;;
48375;SDS011;34178;50.904;11.560;2023-03-01T14:26:00;20.67;;;13.40;;
48375;SDS011;34178;50.904;11.560;2023-03-01T14:30:58;24.90;;;13.60;;
48375;SDS011;34178;50.904;11.560;2023-03-01T14:33:35;20.65;;;13.90;;
48375;SDS011;34178;50.904;11.560;2023-03-01T14:36:08;19.55;;;13.77;;
48375;SDS011;34178;50.904;11.560;2023-03-01T14:38:36;19.27;;;13.45;;
48375;SDS011;34178;50.904;11.560;2023-03-01T14:41:05;21.90;;;13.50;;
48375;SDS011;34178;50.904;11.560;2023-03-01T14:43:34;17.95;;;12.95;;
48375;SDS011;34178;50.904;11.560;2023-03-01T14:46:02;19.63;;;13.18;;
48375;SDS011;34178;50.904;11.560;2023-03-01T14:48:28;20.88;;;13.35;;
48375;SDS011;34178;50.904;11.560;2023-03-01T14:50:54;21.23;;;13.00;;
48375;SDS011;34178;50.904;11.560;2023-03-01T14:53:23;21.15;;;12.93;;
48375;SDS011;34178;50.904;11.560;2023-03-01T14:55:52;19.77;;;13.90;;
48375;SDS011;34178;50.904;11.560;2023-03-01T14:58:25;19.17;;;13.10;;
48375;SDS011;34178;50.904;11.560;2023-03-01T15:01:01;17.58;;;11.57;;
48375;SDS011;34178;50.904;11.560;2023-03-01T15:06:08;18.73;;;12.60;;
48375;SDS011;34178;50.904;11.560;2023-03-01T15:08:37;17.90;;;12.18;;
48375;SDS011;34178;50.904;11.560;2023-03-01T15:13:38;19.98;;;12.18;;
48375;SDS011;34178;50.904;11.560;2023-03-01T15:16:09;19.75;;;12.13;;
48375;SDS011;34178;50.904;11.560;2023-03-01T15:18:43;22.42;;;13.55;;
48375;SDS011;34178;50.904;11.560;2023-03-01T15:23:51;24.83;;;14.32;;
48375;SDS011;34178;50.904;11.560;2023-03-01T15:26:21;26.23;;;13.70;;
48375;SDS011;34178;50.904;11.560;2023-03-01T15:28:53;21.13;;;13.50;;
48375;SDS011;34178;50.904;11.560;2023-03-01T15:31:36;23.55;;;13.68;;
48375;SDS011;34178;50.904;11.560;2023-03-01T15:36:48;23.30;;;14.20;;
48375;SDS011;34178;50.904;11.560;2023-03-01T15:39:29;25.95;;;13.50;;
48375;SDS011;34178;50.904;11.560;2023-03-01T15:41:56;26.05;;;13.88;;
48375;SDS011;34178;50.904;11.560;2023-03-01T15:44:29;23.90;;;15.10;;
48375;SDS011;34178;50.904;11.560;2023-03-01T15:50:19;25.80;;;13.93;;
48375;SDS011;34178;50.904;11.560;2023-03-01T15:52:47;23.77;;;14.55;;
48375;SDS011;34178;50.904;11.560;2023-03-01T15:55:35;26.05;;;14.00;;
48375;SDS011;34178;50.904;11.560;2023-03-01T15:58:04;27.25;;;14.27;;
48375;SDS011;34178;50.904;11.560;2023-03-01T16:00:35;25.38;;;14.38;;
48375;SDS011;34178;50.904;11.560;2023-03-01T16:03:00;25.75;;;15.05;;
48375;SDS011;34178;50.904;11.560;2023-03-01T16:05:30;28.40;;;15.13;;
48375;SDS011;34178;50.904;11.560;2023-03-01T16:07:57;30.05;;;14.88;;
48375;SDS011;34178;50.904;11.560;2023-03-01T16:10:23;30.63;;;15.13;;
48375;SDS011;34178;50.904;11.560;2023-03-01T16:12:49;26.67;;;15.20;;
48375;SDS011;34178;50.904;11.560;2023-03-01T16:17:45;30.48;;;15.25;;
48375;SDS011;34178;50.904;11.560;2023-03-01T16:20:11;29.70;;;15.85;;
48375;SDS011;34178;50.904;11.560;2023-03-01T16:22:40;25.50;;;15.18;;
48375;SDS011;34178;50.904;11.560;2023-03-01T16:25:08;31.25;;;16.02;;
48375;SDS011;34178;50.904;11.560;2023-03-01T16:27:35;30.33;;;16.08;;
48375;SDS011;34178;50.904;11.560;2023-03-01T16:30:00;26.27;;;15.25;;
48375;SDS011;34178;50.904;11.560;2023-03-01T16:32:26;28.83;;;15.40;;
48375;SDS011;34178;50.904;11.560;2023-03-01T16:34:52;35.33;;;16.05;;
48375;SDS011;34178;50.904;11.560;2023-03-01T16:37:17;30.13;;;16.30;;
48375;SDS011;34178;50.904;11.560;2023-03-01T16:39:44;41.78;;;21.80;;
48375;SDS011;34178;50.904;11.560;2023-03-01T16:42:09;43.50;;;23.67;;
48375;SDS011;34178;50.904;11.560;2023-03-01T16:44:35;33.03;;;17.83;;
48375;SDS011;34178;50.904;11.560;2023-03-01T16:47:01;27.20;;;15.23;;
48375;SDS011;34178;50.904;11.560;2023-03-01T16:49:26;23.40;;;14.57;;
48375;SDS011;34178;50.904;11.560;2023-03-01T16:51:55;22.50;;;13.13;;
48375;SDS011;34178;50.904;11.560;2023-03-01T16:54:21;24.67;;;13.25;;
48375;SDS011;34178;50.904;11.560;2023-03-01T16:56:46;26.20;;;13.45;;
48375;SDS011;34178;50.904;11.560;2023-03-01T16:59:12;22.73;;;12.82;;
48375;SDS011;34178;50.904;11.560;2023-03-01T17:01:38;25.13;;;12.85;;
48375;SDS011;34178;50.904;11.560;2023-03-01T17:04:06;26.13;;;12.73;;
48375;SDS011;34178;50.904;11.560;2023-03-01T17:06:35;42.27;;;16.13;;